Aérodrome :
LOGIN :

S'inscrire | Disclaimer

   EN    FR    IT 

 










Légende :    VFR   VFR Marginal   IFR   IFR Intensif   IFR Très Intensif
Visi : 
Plafond : 
>= 8 km
>= 3000ft
5 à 8 km
1000 à 3000 ft
1500m à 5 km
500 à 1000 ft
800 à 1500m
200 à 500 ft
< 800m
< 200 ft
Symboles :   Orages  Brouillard  Fortes neiges  Fortes précipitations  Vent > 20 kt
SIGMETs :   Divers  Orages  Givrage  Turbulence  Onde Orograph.  Cendres Volcan.






- Altitude de l'aérodrome : 3368 ft


LSGC - Les Eplatures

DERNIER METAR :
  • 030920Z AUTO 27007KT 200V320 CAVOK 19/05 Q1010

METARs EXPIRÉS :
  • 030850Z 26006KT 220V310 9999 FEW049 19/06 Q1011
  • 030820Z AUTO 24006KT 170V290 CAVOK 19/06 Q1011
  • 030750Z AUTO VRB03KT CAVOK 18/06 Q1011
  • 030720Z 22005KT 180V260 CAVOK 19/08 Q1011
  • 030650Z VRB02KT CAVOK 18/07 Q1011
  • 030620Z 22002KT CAVOK 15/09 Q1012

TAF TAF LSGC
Valide du 03 à 09h jusqu'au 03 à 18h UTC


030825Z 0309/0318 VRB01KT 9999 FEW040TCU
TEMPO 0312/0315 22015G30KT TSRA FEW040CB
PROB40 0313/0318 1500 +TSRA BKN020CB



MET'MAP, la Météo Aéronautique d'un coup d'oeil ! - Copyright ORBIFLY Décembre 2007 - Disclaimer

ORBIFLY MET'MAP TEAM :

Programmation & Développement : Alexandra Zaïnal
Sur une idée originale de : Baudouin d'Aumeries
Assistance à la programmation : Marc-Olivier Méhu
Soutien technique & logistique : Manuel Goepfert

Contact : metmap@orbifly.com




SOURCES & CREDITS :

   NOAA